Details From MHTG - Tegucigalpa Toncontin Intl
To MMCZ - Cozumel Intl
Flight Number -
Tags Generated
Created
Modified
Stats Distance 389 nm / 720 km
Max Altitude 0 ft / 0 m
Waypoints 3
Social Downloads 3
Likes 0
Share VATSIM

Download

Looking for another format? Having issues loading an existing format? Contact us
Advertisement - Login to hide

Notes

Generated

Route

MHTG CZM17 MMCZ

ID Type Via Altitude Latitude Longitude Leg Dist Tot Dist Heading (true) Name
O MHTG APT - 0 ft / 0 m 14.05292˚ -87.22000˚ - 0 nm - -
CZM17 FIX - 0 ft / 0 m 20.35469˚ -86.93238˚ 378 nm 378 nm 2° / 3° -
O MMCZ APT - 0 ft / 0 m 20.52011˚ -86.93997˚ 9 nm 388 nm 358° / 358° -

Altitude Profile

Advertisement - Login to hide

Weather


0- 5 10 15 20 25 30 35+ Temperature / ° C

Clouds and Precipitation
Forecast for 2017-12-17 00:00 UTC. Updated an hour ago

Ground ~20,000 ft ~40,000 ft Winds

MHTG

Details ICAO MHTG (TGU)
Name Tegucigalpa Toncontin Intl
Region Honduras
Timezone America/Tegucigalpa (UTC-6.0)
Stats Elevation 3,294 ft / 1,004 m (AMSL)
Location 14.060883° -87.217197°
Runways 1
Magnetic Variation 0.661° W

METAR

MHTG 170000Z 04006KT 9999 SCT030 21/15 Q0118 A3006 NOSIG

Decode

TAF

Not found

Departure Runways

ID Width Length Bearing (true) Bearing (mag) Surface Threshold Offset Overrun Length
02 148 ft / 45 m 6,140 ft / 1,872 m 18.87° 19.53° Asphalt 670 ft / 204 m 100 ft / 30 m
20 148 ft / 45 m 6,140 ft / 1,872 m 198.87° 199.53° Asphalt 0 ft / 0 m 200 ft / 61 m

MMCZ

Details ICAO MMCZ (CZM)
Name Cozumel Intl
Region Mexico
Timezone America/Cancun (UTC-5.0)
Stats Elevation 15 ft / 5 m (AMSL)
Location 20.522845° -86.928142°
Runways 2
Magnetic Variation 1.778° W

METAR

MMCZ 162351Z 12003KT 7SM BKN080 BKN250 25/23 A3001 RMK SLP169 52009 906 8/038 SC

Decode

TAF

TAF MMCZ 162312Z 1700/1806 12006KT P6SM SCT080 BKN250 FM170600 10015KT P6SM SCT015 BKN250 FM171600 12015KT P6SM BKN015 BKN250 TEMPO 1721/1801 5SM RA

Decode

Destination Runways

ID Width Length Bearing (true) Bearing (mag) Surface Threshold Offset Overrun Length
05 148 ft / 45 m 10,172 ft / 3,101 m 55.07° 56.85° Asphalt 2,530 ft / 771 m 0 ft / 0 m
11 148 ft / 45 m 8,866 ft / 2,702 m 115.78° 117.56° Asphalt 656 ft / 200 m 0 ft / 0 m
23 148 ft / 45 m 10,172 ft / 3,101 m 235.08° 236.86° Asphalt 0 ft / 0 m 190 ft / 58 m
29 148 ft / 45 m 8,866 ft / 2,702 m 295.79° 297.57° Asphalt 0 ft / 0 m 210 ft / 64 m